createdAt,value
2022-09-05T00:00:53.221Z,84.23
2022-09-05T00:04:26.450Z,83.97
2022-09-05T00:08:16.994Z,83.90
2022-09-05T00:11:55.055Z,84.33
2022-09-05T00:15:34.214Z,84.07
2022-09-05T00:24:19.456Z,83.96
2022-09-05T00:24:42.110Z,84.07
2022-09-05T00:27:03.842Z,84.19
2022-09-05T00:31:07.058Z,84.72
2022-09-05T00:34:21.833Z,84.92
2022-09-05T00:37:46.503Z,85.27
2022-09-05T00:41:12.181Z,85.68
2022-09-05T00:44:36.601Z,85.61
2022-09-05T00:48:03.327Z,85.69
2022-09-05T00:51:40.206Z,85.95
2022-09-05T00:55:18.882Z,85.98
2022-09-05T00:59:14.185Z,86.10
2022-09-05T01:03:11.705Z,86.09
2022-09-05T01:06:44.330Z,86.13
2022-09-05T01:10:43.725Z,86.29
2022-09-05T01:14:20.677Z,86.76
2022-09-05T01:17:57.279Z,86.54
2022-09-05T01:21:35.046Z,86.59
2022-09-05T01:25:23.696Z,86.47
2022-09-05T01:29:18.728Z,86.62
2022-09-05T01:33:06.011Z,86.23
2022-09-05T01:36:53.797Z,85.46
2022-09-05T01:40:21.084Z,85.28
2022-09-05T01:44:02.362Z,85.61
2022-09-05T01:47:35.462Z,86.59
2022-09-05T01:51:29.290Z,86.30
2022-09-05T01:55:24.585Z,86.34
2022-09-05T01:58:58.049Z,86.76
2022-09-05T02:02:32.811Z,87.25
2022-09-05T02:06:23.533Z,87.17
2022-09-05T02:10:17.299Z,87.56
2022-09-05T02:13:57.756Z,87.64
2022-09-05T02:17:49.934Z,88.21
2022-09-05T02:21:24.246Z,87.32
2022-09-05T02:24:48.868Z,87.50
2022-09-05T02:28:20.713Z,88.03
2022-09-05T02:31:50.974Z,88.33
2022-09-05T02:35:25.161Z,88.32
2022-09-05T02:45:00.498Z,88.21
2022-09-05T02:45:14.077Z,88.31
2022-09-05T02:46:48.574Z,88.23
2022-09-05T02:54:07.874Z,88.23
2022-09-05T02:57:35.238Z,88.26
2022-09-05T02:58:21.108Z,88.25
2022-09-05T03:02:02.015Z,88.63
2022-09-05T03:05:32.400Z,88.58
2022-09-05T03:09:16.850Z,88.80
2022-09-05T03:13:06.886Z,88.71
2022-09-05T03:16:33.536Z,88.69
2022-09-05T03:20:20.754Z,89.01
2022-09-05T03:24:11.181Z,88.97
2022-09-05T03:28:10.230Z,88.70
2022-09-05T03:32:09.857Z,88.59
2022-09-05T03:35:53.012Z,88.38
2022-09-05T03:39:39.770Z,88.89
2022-09-05T03:43:26.129Z,88.88
2022-09-05T03:46:53.953Z,88.38
2022-09-05T03:56:47.332Z,88.56
2022-09-05T03:57:23.498Z,88.63
2022-09-05T03:58:56.887Z,88.70
2022-09-05T04:08:05.765Z,89.01
2022-09-05T04:08:16.374Z,89.48
2022-09-05T04:10:01.101Z,88.58
2022-09-05T04:13:31.104Z,88.45
2022-09-05T04:17:03.913Z,88.46
2022-09-05T04:20:47.989Z,88.70
2022-09-05T04:24:16.170Z,88.76
2022-09-05T04:27:48.822Z,88.98
2022-09-05T04:31:17.622Z,89.09
2022-09-05T04:35:07.153Z,89.09
2022-09-05T04:38:38.170Z,88.88
2022-09-05T04:42:02.925Z,89.00
2022-09-05T04:45:25.228Z,89.09
2022-09-05T04:49:05.739Z,89.45
2022-09-05T04:53:04.624Z,89.05
2022-09-05T04:56:31.374Z,89.59
2022-09-05T05:03:40.526Z,89.80
2022-09-05T05:06:09.580Z,90.17
2022-09-05T05:07:31.261Z,90.59
2022-09-05T05:14:17.553Z,90.61
2022-09-05T05:18:15.466Z,91.21
2022-09-05T05:18:48.843Z,92.98
2022-09-05T05:22:18.486Z,94.00
2022-09-05T05:25:48.151Z,94.35
2022-09-05T05:29:20.777Z,94.34
2022-09-05T05:32:47.924Z,94.03
2022-09-05T05:36:17.285Z,93.41
2022-09-05T05:39:44.821Z,92.47
2022-09-05T05:43:15.134Z,92.04
2022-09-05T05:46:39.887Z,91.41
2022-09-05T09:24:40.733Z,57.17
2022-09-05T09:28:46.422Z,57.08
2022-09-05T09:32:11.249Z,58.36
2022-09-05T09:35:59.842Z,57.87
2022-09-05T09:39:49.632Z,58.16
2022-09-05T09:43:20.595Z,57.62
2022-09-05T09:46:46.489Z,55.26
2022-09-05T09:50:20.333Z,55.59
2022-09-05T09:53:45.550Z,56.15
2022-09-05T09:57:19.081Z,56.09
2022-09-05T10:00:51.370Z,55.43
2022-09-05T10:10:04.432Z,57.10
2022-09-05T10:10:47.956Z,56.54
2022-09-05T10:13:08.334Z,54.62
2022-09-05T10:16:55.341Z,54.73
2022-09-05T10:20:44.642Z,54.79
2022-09-05T10:24:34.411Z,54.93
2022-09-05T10:28:05.303Z,53.76
2022-09-05T10:35:06.956Z,53.00
2022-09-05T10:35:51.433Z,50.39
2022-09-05T10:39:23.978Z,50.64
2022-09-05T10:43:00.570Z,51.39
2022-09-05T10:46:57.032Z,51.43
2022-09-05T10:50:35.144Z,50.81
2022-09-05T10:54:18.455Z,50.07
2022-09-05T10:57:57.509Z,49.21
2022-09-05T11:02:22.466Z,49.13
2022-09-05T11:05:37.524Z,47.21
2022-09-05T11:09:07.006Z,48.25
2022-09-05T11:12:48.081Z,48.41
2022-09-05T11:16:38.274Z,47.36
2022-09-05T11:20:27.649Z,46.13
2022-09-05T11:24:18.681Z,46.83
2022-09-05T11:27:47.658Z,45.69
2022-09-05T11:31:14.489Z,44.36
2022-09-05T11:39:58.277Z,45.42
2022-09-05T11:40:04.813Z,47.11
2022-09-05T11:43:13.839Z,47.22
2022-09-05T11:46:48.176Z,45.53
2022-09-05T11:50:25.929Z,44.83
2022-09-05T11:53:57.475Z,44.68
2022-09-05T11:57:38.858Z,45.39
2022-09-05T12:01:42.449Z,44.50
2022-09-05T12:05:48.922Z,44.83
2022-09-05T12:09:24.476Z,45.69
2022-09-05T12:13:29.188Z,46.34
2022-09-05T12:17:34.847Z,46.41
2022-09-05T12:21:19.463Z,47.04
2022-09-05T12:29:33.483Z,47.11
2022-09-05T12:36:05.731Z,46.81
2022-09-05T12:40:53.918Z,47.38
2022-09-05T12:41:37.514Z,47.63
2022-09-05T12:42:10.082Z,47.11
2022-09-05T12:44:44.527Z,47.56
2022-09-05T12:48:22.467Z,46.99
2022-09-05T12:52:02.437Z,47.70
2022-09-05T12:55:36.588Z,47.99
2022-09-05T13:03:05.470Z,47.75
2022-09-05T13:03:11.190Z,47.32
2022-09-05T13:06:31.826Z,46.44
2022-09-05T13:12:19.751Z,46.18
2022-09-05T13:15:01.784Z,45.36
2022-09-05T13:18:08.599Z,44.74
2022-09-05T13:21:31.258Z,45.02
2022-09-05T13:25:05.121Z,45.36
2022-09-05T13:28:35.418Z,45.11
2022-09-05T13:37:58.028Z,45.86
2022-09-05T13:38:03.575Z,44.86
2022-09-05T13:39:56.234Z,46.10
2022-09-05T13:43:38.484Z,45.12
2022-09-05T13:47:16.353Z,44.82
2022-09-05T13:50:53.177Z,45.07
2022-09-05T13:54:14.712Z,45.44
2022-09-05T13:57:44.711Z,46.13
2022-09-05T14:01:34.007Z,45.90
2022-09-05T14:05:06.409Z,45.33
2022-09-05T14:08:37.433Z,45.22
2022-09-05T14:13:00.506Z,45.19
2022-09-05T14:16:31.982Z,45.17
2022-09-05T14:20:12.985Z,45.29
2022-09-05T14:23:45.355Z,45.85
2022-09-05T14:27:31.902Z,45.82
2022-09-05T14:33:21.172Z,45.84
2022-09-05T14:37:50.882Z,46.12
2022-09-05T14:38:15.204Z,46.41
2022-09-05T14:41:28.270Z,46.55
2022-09-05T14:44:54.843Z,46.51
2022-09-05T14:47:59.838Z,46.50
2022-09-05T14:51:04.961Z,46.19
2022-09-05T15:02:42.516Z,45.83
2022-09-05T15:02:52.382Z,45.19
2022-09-05T15:04:45.808Z,45.36
2022-09-05T15:07:49.502Z,44.88
2022-09-05T15:12:20.852Z,45.17
2022-09-05T15:14:18.802Z,45.51
2022-09-05T15:17:23.782Z,45.94
2022-09-05T15:20:41.123Z,45.65
2022-09-05T15:23:44.586Z,45.13
2022-09-05T15:26:56.268Z,44.28
2022-09-05T15:29:57.984Z,44.35
2022-09-05T15:33:17.929Z,44.02
2022-09-05T15:36:33.141Z,43.73
2022-09-05T15:39:35.070Z,43.57
2022-09-05T15:42:38.838Z,43.37
2022-09-05T15:45:40.673Z,43.22
2022-09-05T15:48:43.663Z,43.21
2022-09-05T15:51:57.875Z,43.19
2022-09-05T15:55:14.097Z,43.57
2022-09-05T15:58:17.790Z,43.83
2022-09-05T16:01:31.192Z,44.34
2022-09-05T16:10:39.981Z,45.09
2022-09-05T16:10:50.492Z,44.63
2022-09-05T16:12:16.429Z,45.06
2022-09-05T16:18:06.929Z,45.34
2022-09-05T16:23:17.444Z,45.70
2022-09-05T16:23:27.597Z,45.85
2022-09-05T16:25:57.090Z,46.22
2022-09-05T16:29:01.403Z,46.51
2022-09-05T16:32:12.612Z,46.51
2022-09-05T16:35:16.495Z,46.80
2022-09-05T16:38:25.797Z,46.99
2022-09-05T16:41:53.820Z,47.09
2022-09-05T16:45:06.331Z,47.43
2022-09-05T16:48:34.586Z,47.68
2022-09-05T16:51:45.385Z,47.84
2022-09-05T16:54:58.621Z,48.13
2022-09-05T16:58:14.514Z,48.37
2022-09-05T17:01:35.826Z,48.52
2022-09-05T17:04:37.742Z,48.77
2022-09-05T17:08:06.203Z,49.10
2022-09-05T17:11:12.386Z,49.41
2022-09-05T17:14:25.290Z,49.67
2022-09-05T17:18:20.875Z,50.03
2022-09-05T17:21:46.950Z,50.36
2022-09-05T17:29:25.747Z,50.67
2022-09-05T17:29:34.293Z,50.91
2022-09-05T17:32:18.921Z,51.31
2022-09-05T17:35:41.707Z,51.54
2022-09-05T17:38:48.026Z,51.73
2022-09-05T17:41:55.951Z,51.98
2022-09-05T17:45:23.193Z,52.27
2022-09-05T17:49:17.575Z,52.51
2022-09-05T17:52:17.542Z,52.76
2022-09-05T17:55:19.428Z,53.05
2022-09-05T17:58:49.642Z,53.19
2022-09-05T18:02:07.346Z,53.26
2022-09-05T18:05:51.923Z,53.54
2022-09-05T18:08:53.658Z,53.60
2022-09-05T18:15:33.915Z,54.26
2022-09-05T18:19:27.815Z,54.62
2022-09-05T18:22:11.349Z,54.81
2022-09-05T18:25:30.801Z,55.06
2022-09-05T18:29:01.732Z,55.18
2022-09-05T18:32:05.681Z,55.49
2022-09-05T18:35:29.254Z,55.79
2022-09-05T18:38:51.419Z,55.91
2022-09-05T18:42:07.030Z,56.13
2022-09-05T18:45:28.440Z,56.37
2022-09-05T18:48:42.380Z,56.58
2022-09-05T18:51:54.654Z,56.71
2022-09-05T18:56:11.092Z,56.90
2022-09-05T18:58:59.485Z,57.07
2022-09-05T19:02:26.736Z,57.18
2022-09-05T19:05:51.049Z,57.44
2022-09-05T19:09:05.862Z,57.72
2022-09-05T19:12:31.907Z,58.02
2022-09-05T19:15:36.459Z,58.18
2022-09-05T19:19:08.206Z,58.31
2022-09-05T19:23:09.177Z,58.44
2022-09-05T19:25:37.829Z,58.41
2022-09-05T19:35:15.498Z,58.48
2022-09-05T19:36:54.918Z,58.78
2022-09-05T19:37:24.082Z,59.18
2022-09-05T19:41:47.902Z,59.38
2022-09-05T19:47:35.662Z,59.92
2022-09-05T19:47:40.834Z,59.76
2022-09-05T19:49:12.497Z,60.08
2022-09-05T19:52:16.390Z,60.27
2022-09-05T19:55:22.012Z,60.37
2022-09-05T19:58:24.537Z,60.55
2022-09-05T20:01:26.691Z,60.88
2022-09-05T20:04:32.278Z,60.74
2022-09-05T20:07:35.949Z,60.89
2022-09-05T20:10:38.879Z,61.05
2022-09-05T20:13:40.622Z,61.01
2022-09-05T20:16:42.494Z,61.18
2022-09-05T20:19:45.029Z,61.38
2022-09-05T20:22:50.655Z,61.48
2022-09-05T20:25:54.689Z,61.54
2022-09-05T20:29:01.638Z,61.75
2022-09-05T20:32:04.205Z,61.83
2022-09-05T20:39:59.579Z,62.07
2022-09-05T20:43:21.003Z,62.10
2022-09-05T20:43:35.216Z,62.21
2022-09-05T20:45:44.638Z,62.25
2022-09-05T20:54:07.644Z,62.36
2022-09-05T20:54:21.532Z,62.42
2022-09-05T20:55:39.492Z,62.52
2022-09-05T20:58:48.306Z,62.46
2022-09-05T21:02:07.187Z,62.60
2022-09-05T21:05:20.598Z,62.54
2022-09-05T21:08:36.713Z,62.57
2022-09-05T21:11:38.548Z,62.68
2022-09-05T21:14:40.231Z,62.64
2022-09-05T21:17:42.078Z,62.57
2022-09-05T21:20:56.954Z,62.74
2022-09-05T21:24:18.138Z,62.66
2022-09-05T21:27:24.678Z,63.12
2022-09-05T21:30:37.791Z,62.95
2022-09-05T21:33:45.610Z,63.26
2022-09-05T21:36:48.581Z,63.31
2022-09-05T21:39:59.366Z,63.66
2022-09-05T21:47:44.955Z,63.65
2022-09-05T21:47:46.172Z,63.67
2022-09-05T21:49:49.394Z,63.73
2022-09-05T21:53:28.238Z,63.62
2022-09-05T21:59:25.010Z,63.78
2022-09-05T21:59:46.993Z,63.88
2022-09-05T22:02:49.625Z,63.92
2022-09-05T22:05:52.261Z,64.13
2022-09-05T22:09:11.377Z,64.42
2022-09-05T22:12:30.385Z,64.41
2022-09-05T22:15:32.869Z,64.55
2022-09-05T22:18:37.106Z,64.73
2022-09-05T22:21:39.245Z,64.96
2022-09-05T22:25:03.217Z,64.93
2022-09-05T22:28:12.840Z,64.96
2022-09-05T22:31:19.072Z,64.96
2022-09-05T22:34:22.529Z,65.05
2022-09-05T22:37:24.281Z,65.04
2022-09-05T22:40:25.965Z,64.98
2022-09-05T22:43:27.743Z,64.95
2022-09-05T22:46:30.580Z,64.86
2022-09-05T22:49:32.399Z,64.96
2022-09-05T22:52:34.193Z,65.12
2022-09-05T22:55:37.712Z,65.17
2022-09-05T22:58:41.778Z,65.16
2022-09-05T23:01:44.196Z,65.10
2022-09-05T23:05:06.964Z,65.18
2022-09-05T23:08:09.362Z,65.54
2022-09-05T23:11:13.505Z,65.80
2022-09-05T23:14:15.794Z,65.71
2022-09-05T23:17:17.722Z,65.72
2022-09-05T23:20:19.531Z,65.75
2022-09-05T23:23:21.686Z,66.04
2022-09-05T23:26:23.394Z,66.28
2022-09-05T23:29:25.202Z,66.44
2022-09-05T23:32:26.840Z,66.61
2022-09-05T23:35:28.592Z,66.74
2022-09-05T23:38:30.483Z,66.59
2022-09-05T23:41:32.345Z,66.73
2022-09-05T23:44:34.082Z,66.89
2022-09-05T23:47:36.616Z,66.78
2022-09-05T23:50:38.413Z,67.10
2022-09-05T23:53:40.804Z,67.23
2022-09-05T23:56:42.618Z,67.60
2022-09-05T23:59:44.306Z,67.50
